createdAt,value
2019-05-02T00:00:52.255Z,0.00
2019-05-02T00:01:52.207Z,0.00
2019-05-02T00:02:52.188Z,0.00
2019-05-02T00:03:52.113Z,0.00
2019-05-02T00:04:55.782Z,0.00
2019-05-02T00:05:52.043Z,0.00
2019-05-02T00:06:51.987Z,0.00
2019-05-02T00:07:53.882Z,0.00
2019-05-02T00:08:51.878Z,0.00
2019-05-02T00:09:51.831Z,0.00
2019-05-02T00:10:51.782Z,0.00
2019-05-02T00:11:58.592Z,0.00
2019-05-02T00:12:51.691Z,0.00
2019-05-02T00:13:51.649Z,0.00
2019-05-02T00:14:51.595Z,0.00
2019-05-02T00:15:51.882Z,0.00
2019-05-02T00:16:51.659Z,0.00
2019-05-02T00:17:51.453Z,0.00
2019-05-02T00:18:51.422Z,0.00
2019-05-02T00:19:51.405Z,0.00
2019-05-02T00:20:51.734Z,0.00
2019-05-02T00:21:51.266Z,0.00
2019-05-02T00:22:52.245Z,0.00
2019-05-02T00:23:51.173Z,0.00
2019-05-02T00:24:51.157Z,0.00
2019-05-02T00:25:52.590Z,0.00
2019-05-02T00:26:51.055Z,0.00
2019-05-02T00:27:50.982Z,0.00
2019-05-02T00:28:50.934Z,0.00
2019-05-02T00:29:53.743Z,0.00
2019-05-02T00:30:50.917Z,0.00
2019-05-02T00:31:50.790Z,0.00
2019-05-02T00:32:53.117Z,0.00
2019-05-02T00:33:50.696Z,0.00
2019-05-02T00:34:50.647Z,0.00
2019-05-02T00:35:50.601Z,0.00
2019-05-02T00:36:50.560Z,0.00
2019-05-02T00:37:50.657Z,0.00
2019-05-02T00:38:50.459Z,0.00
2019-05-02T00:39:50.519Z,0.00
2019-05-02T00:40:50.365Z,0.00
2019-05-02T00:41:50.327Z,0.00
2019-05-02T00:42:53.321Z,0.00
2019-05-02T00:43:50.339Z,0.00
2019-05-02T00:44:50.186Z,0.00
2019-05-02T00:45:50.261Z,0.00
2019-05-02T00:46:50.080Z,0.00
2019-05-02T00:47:50.121Z,0.00
2019-05-02T00:48:54.058Z,0.00
2019-05-02T00:49:49.940Z,0.00
2019-05-02T00:50:50.635Z,0.00
2019-05-02T00:51:49.846Z,0.00
2019-05-02T00:52:49.796Z,0.00
2019-05-02T00:53:49.883Z,0.00
2019-05-02T00:54:49.700Z,0.00
2019-05-02T00:55:49.687Z,0.00
2019-05-02T00:56:49.604Z,0.00
2019-05-02T00:57:50.993Z,0.00
2019-05-02T00:58:49.511Z,0.00
2019-05-02T00:59:49.484Z,0.00
2019-05-02T01:00:53.149Z,0.00
2019-05-02T01:01:49.368Z,0.00
2019-05-02T01:02:49.319Z,0.00
2019-05-02T01:03:52.124Z,0.00
2019-05-02T01:04:49.225Z,0.00
2019-05-02T01:05:49.177Z,0.00
2019-05-02T01:06:50.706Z,0.00
2019-05-02T01:07:49.088Z,0.00
2019-05-02T01:08:49.033Z,0.00
2019-05-02T01:09:48.985Z,0.00
2019-05-02T01:10:52.176Z,0.00
2019-05-02T01:11:48.891Z,0.00
2019-05-02T01:12:48.843Z,0.00
2019-05-02T01:13:50.385Z,0.00
2019-05-02T01:14:48.748Z,0.00
2019-05-02T01:15:48.701Z,0.00
2019-05-02T01:16:49.444Z,0.00
2019-05-02T01:17:50.024Z,0.00
2019-05-02T01:18:48.558Z,0.00
2019-05-02T01:19:51.450Z,0.00
2019-05-02T01:20:48.463Z,0.00
2019-05-02T01:21:48.420Z,0.00
2019-05-02T01:22:52.415Z,0.00
2019-05-02T01:23:48.321Z,0.00
2019-05-02T01:24:48.272Z,0.00
2019-05-02T01:25:52.923Z,0.00
2019-05-02T01:26:48.175Z,0.00
2019-05-02T01:27:48.125Z,0.00
2019-05-02T01:28:49.260Z,0.00
2019-05-02T01:29:48.031Z,0.00
2019-05-02T01:30:47.980Z,0.00
2019-05-02T01:31:49.977Z,0.00
2019-05-02T01:32:47.882Z,0.00
2019-05-02T01:33:47.837Z,0.00
2019-05-02T01:34:48.969Z,0.00
2019-05-02T01:35:47.735Z,0.00
2019-05-02T01:36:47.689Z,0.00
2019-05-02T01:37:51.008Z,0.00
2019-05-02T01:38:47.594Z,0.00
2019-05-02T01:39:47.540Z,0.00
2019-05-02T01:41:47.444Z,0.00
2019-05-02T01:42:49.014Z,0.00
2019-05-02T01:43:47.353Z,0.00
2019-05-02T01:44:47.298Z,0.00
2019-05-02T01:45:47.770Z,0.00
2019-05-02T01:46:47.198Z,0.00
2019-05-02T01:47:47.150Z,0.00
2019-05-02T01:48:47.797Z,0.00
2019-05-02T01:51:21.800Z,0.00
2019-05-02T01:52:23.649Z,0.00
2019-05-02T01:53:21.710Z,0.00
2019-05-02T01:54:21.652Z,0.00
2019-05-02T01:55:22.387Z,0.00
2019-05-02T01:56:21.556Z,0.00
2019-05-02T01:57:21.510Z,0.00
2019-05-02T01:58:22.931Z,0.00
2019-05-02T01:59:21.410Z,0.00
2019-05-02T02:00:21.364Z,0.00
2019-05-02T02:01:23.240Z,0.00
2019-05-02T02:02:21.267Z,0.00
2019-05-02T02:03:21.219Z,0.00
2019-05-02T02:04:22.204Z,0.00
2019-05-02T02:05:21.127Z,0.00
2019-05-02T02:06:21.076Z,0.00
2019-05-02T02:07:21.254Z,0.00
2019-05-02T02:08:20.978Z,0.00
2019-05-02T02:09:20.934Z,0.00
2019-05-02T02:10:21.091Z,0.00
2019-05-02T02:11:20.834Z,0.00
2019-05-02T02:12:20.786Z,0.00
2019-05-02T02:13:20.737Z,0.00
2019-05-02T02:14:20.689Z,0.00
2019-05-02T02:15:24.870Z,0.00
2019-05-02T02:16:20.591Z,0.00
2019-05-02T02:17:20.548Z,0.00
2019-05-02T02:18:22.292Z,0.00
2019-05-02T02:19:20.449Z,0.00
2019-05-02T02:20:20.406Z,0.00
2019-05-02T02:21:25.779Z,0.00
2019-05-02T02:22:20.307Z,0.00
2019-05-02T02:23:20.257Z,0.00
2019-05-02T02:24:21.206Z,0.00
2019-05-02T02:25:20.161Z,0.00
2019-05-02T02:26:20.118Z,0.00
2019-05-02T02:27:24.503Z,0.00
2019-05-02T02:28:20.019Z,0.00
2019-05-02T02:29:19.969Z,0.00
2019-05-02T02:30:24.639Z,0.00
2019-05-02T02:31:19.874Z,0.00
2019-05-02T02:32:26.392Z,0.00
2019-05-02T02:33:19.777Z,0.00
2019-05-02T02:34:29.098Z,0.00
2019-05-02T02:35:19.682Z,0.00
2019-05-02T02:36:30.198Z,0.00
2019-05-02T02:37:19.588Z,0.00
2019-05-02T02:38:19.543Z,0.00
2019-05-02T02:39:19.502Z,0.00
2019-05-02T02:40:19.445Z,0.00
2019-05-02T02:41:19.395Z,0.00
2019-05-02T02:42:24.954Z,0.00
2019-05-02T02:43:33.373Z,0.00
2019-05-02T02:44:19.262Z,0.00
2019-05-02T02:45:20.457Z,0.00
2019-05-02T02:46:19.155Z,0.00
2019-05-02T02:47:20.899Z,0.00
2019-05-02T02:48:19.065Z,0.00
2019-05-02T02:49:21.488Z,0.00
2019-05-02T02:50:18.964Z,0.00
2019-05-02T02:51:23.880Z,0.00
2019-05-02T02:52:18.866Z,0.00
2019-05-02T02:53:24.133Z,0.00
2019-05-02T02:54:18.772Z,0.00
2019-05-02T02:55:22.079Z,0.00
2019-05-02T02:56:18.676Z,0.00
2019-05-02T02:57:25.972Z,0.00
2019-05-02T02:58:18.601Z,0.00
2019-05-02T02:59:26.405Z,0.00
2019-05-02T03:00:18.502Z,0.00
2019-05-02T03:01:27.372Z,0.00
2019-05-02T03:02:18.388Z,0.00
2019-05-02T03:03:20.873Z,0.00
2019-05-02T03:04:18.292Z,0.00
2019-05-02T03:05:25.396Z,0.00
2019-05-02T03:06:18.236Z,0.00
2019-05-02T03:07:25.472Z,0.00
2019-05-02T03:09:00.474Z,0.00
2019-05-02T03:10:06.155Z,0.00
2019-05-02T03:11:00.375Z,0.00
2019-05-02T03:12:02.287Z,0.00
2019-05-02T03:13:00.284Z,0.00
2019-05-02T03:14:07.245Z,0.00
2019-05-02T03:15:00.182Z,0.00
2019-05-02T03:16:06.269Z,0.00
2019-05-02T03:17:00.082Z,0.00
2019-05-02T03:18:01.934Z,0.00
2019-05-02T03:18:59.986Z,0.00
2019-05-02T03:20:03.520Z,0.00
2019-05-02T03:20:59.894Z,0.00
2019-05-02T03:22:03.828Z,0.00
2019-05-02T03:22:59.817Z,0.00
2019-05-02T03:24:03.062Z,0.00
2019-05-02T03:24:59.691Z,0.00
2019-05-02T03:25:59.658Z,0.00
2019-05-02T03:26:59.605Z,0.00
2019-05-02T03:27:59.546Z,0.00
2019-05-02T03:29:00.792Z,0.00
2019-05-02T03:29:59.453Z,0.00
2019-05-02T03:30:59.416Z,0.00
2019-05-02T03:32:14.702Z,0.00
2019-05-02T03:33:11.170Z,0.00
2019-05-02T03:34:01.043Z,0.00
2019-05-02T03:34:59.200Z,0.00
2019-05-02T03:35:59.157Z,0.00
2019-05-02T03:37:03.294Z,0.00
2019-05-02T03:37:59.076Z,0.00
2019-05-02T03:38:59.003Z,0.00
2019-05-02T03:40:00.646Z,0.00
2019-05-02T03:40:58.906Z,4.00
2019-05-02T03:42:03.016Z,4.00
2019-05-02T03:42:58.805Z,0.00
2019-05-02T03:44:10.435Z,4.00
2019-05-02T03:45:04.393Z,4.00
2019-05-02T03:45:58.655Z,4.00
2019-05-02T03:47:02.351Z,4.00
2019-05-02T03:47:58.558Z,4.00
2019-05-02T03:49:05.816Z,8.00
2019-05-02T03:49:58.458Z,8.00
2019-05-02T03:50:58.410Z,8.00
2019-05-02T03:52:03.016Z,8.00
2019-05-02T03:52:58.310Z,8.00
2019-05-02T03:54:06.240Z,12.00
2019-05-02T03:54:58.213Z,16.00
2019-05-02T03:55:58.162Z,16.00
2019-05-02T03:56:58.128Z,20.00
2019-05-02T03:57:58.066Z,20.00
2019-05-02T03:58:58.419Z,24.00
2019-05-02T03:59:57.966Z,28.00
2019-05-02T04:01:01.734Z,32.00
2019-05-02T04:01:57.867Z,36.00
2019-05-02T04:03:00.402Z,40.00
2019-05-02T04:03:57.768Z,48.00
2019-05-02T04:05:00.397Z,52.00
2019-05-02T04:05:57.667Z,56.00
2019-05-02T04:07:01.083Z,64.00
2019-05-02T04:07:57.568Z,68.00
2019-05-02T04:09:00.110Z,76.00
2019-05-02T04:09:57.469Z,80.00
2019-05-02T04:10:59.344Z,88.00
2019-05-02T04:11:57.371Z,92.00
2019-05-02T04:12:58.353Z,100.00
2019-05-02T04:13:57.279Z,108.00
2019-05-02T04:14:57.484Z,116.00
2019-05-02T04:15:57.177Z,124.00
2019-05-02T04:16:57.332Z,128.00
2019-05-02T04:17:57.075Z,140.00
2019-05-02T04:18:58.150Z,144.00
2019-05-02T04:19:56.976Z,152.00
2019-05-02T04:20:56.929Z,160.00
2019-05-02T04:22:01.664Z,172.00
2019-05-02T04:22:56.826Z,180.00
2019-05-02T04:24:07.694Z,184.00
2019-05-02T04:24:57.247Z,196.00
2019-05-02T04:25:56.679Z,200.00
2019-05-02T04:26:56.635Z,208.00
2019-05-02T04:27:56.581Z,212.00
2019-05-02T04:28:56.531Z,220.00
2019-05-02T04:29:56.483Z,228.00
2019-05-02T04:30:56.435Z,240.00
2019-05-02T04:31:56.393Z,240.00
2019-05-02T04:32:57.819Z,256.00
2019-05-02T04:33:56.282Z,264.00
2019-05-02T04:34:58.040Z,272.00
2019-05-02T04:35:59.325Z,280.00
2019-05-02T04:37:00.937Z,284.00
2019-05-02T04:37:59.131Z,296.00
2019-05-02T04:38:59.322Z,304.00
2019-05-02T04:39:59.093Z,312.00
2019-05-02T04:40:59.006Z,316.00
2019-05-02T04:41:58.390Z,328.00
2019-05-02T04:43:02.048Z,328.00
2019-05-02T04:43:58.783Z,336.00
2019-05-02T04:45:13.940Z,344.00
2019-05-02T04:45:59.725Z,356.00
2019-05-02T04:46:59.774Z,368.00
2019-05-02T04:48:00.832Z,380.00
2019-05-02T04:48:55.543Z,396.00
2019-05-02T04:49:55.492Z,412.00
2019-05-02T04:51:01.958Z,428.00
2019-05-02T04:52:03.933Z,456.00
2019-05-02T04:52:55.344Z,476.00
2019-05-02T04:53:58.547Z,492.00
2019-05-02T04:55:08.864Z,508.00
2019-05-02T04:56:01.834Z,520.00
2019-05-02T04:56:55.583Z,536.00
2019-05-02T04:57:55.097Z,552.00
2019-05-02T04:58:55.048Z,568.00
2019-05-02T05:00:04.986Z,580.00
2019-05-02T05:00:59.270Z,600.00
2019-05-02T05:01:58.555Z,616.00
2019-05-02T05:02:54.853Z,632.00
2019-05-02T05:03:58.158Z,648.00
2019-05-02T05:04:54.759Z,656.00
2019-05-02T05:06:01.529Z,664.00
2019-05-02T05:06:58.197Z,680.00
2019-05-02T05:07:54.602Z,688.00
2019-05-02T05:08:54.553Z,696.00
2019-05-02T05:09:58.248Z,712.00
2019-05-02T05:10:54.455Z,728.00
2019-05-02T05:11:59.016Z,744.00
2019-05-02T05:12:54.357Z,760.00
2019-05-02T05:13:57.581Z,760.00
2019-05-02T05:14:54.258Z,756.00
2019-05-02T05:15:54.208Z,752.00
2019-05-02T05:16:56.104Z,764.00
2019-05-02T05:17:54.111Z,780.00
2019-05-02T05:18:54.061Z,788.00
2019-05-02T05:19:54.013Z,800.00
2019-05-02T05:20:54.323Z,784.00
2019-05-02T05:21:58.823Z,796.00
2019-05-02T05:22:53.864Z,800.00
2019-05-02T05:23:59.669Z,808.00
2019-05-02T05:24:53.764Z,836.00
2019-05-02T05:25:55.799Z,856.00
2019-05-02T05:26:53.676Z,864.00
2019-05-02T05:27:58.798Z,872.00
2019-05-02T05:28:53.573Z,888.00
2019-05-02T05:29:58.606Z,904.00
2019-05-02T05:30:53.471Z,900.00
2019-05-02T05:31:55.176Z,876.00
2019-05-02T05:32:53.371Z,868.00
2019-05-02T05:33:53.322Z,888.00
2019-05-02T05:34:53.280Z,840.00
2019-05-02T05:35:53.226Z,900.00
2019-05-02T05:36:53.177Z,924.00
2019-05-02T05:37:53.483Z,936.00
2019-05-02T05:38:53.077Z,940.00
2019-05-02T05:39:53.040Z,948.00
2019-05-02T05:40:52.981Z,960.00
2019-05-02T05:41:52.931Z,964.00
2019-05-02T05:42:52.884Z,984.00
2019-05-02T05:43:53.702Z,992.00
2019-05-02T05:44:52.783Z,992.00
2019-05-02T05:45:56.421Z,988.00
2019-05-02T05:46:52.686Z,1004.00
2019-05-02T05:47:57.597Z,1008.00
2019-05-02T05:48:52.599Z,992.00
2019-05-02T05:49:57.667Z,980.00
2019-05-02T05:50:52.491Z,988.00
2019-05-02T05:51:54.286Z,1000.00
2019-05-02T05:52:52.395Z,1012.00
2019-05-02T05:53:56.746Z,1028.00
2019-05-02T05:54:52.299Z,1032.00
2019-05-02T05:55:53.532Z,1040.00
2019-05-02T05:56:52.198Z,1032.00
2019-05-02T05:57:59.940Z,1056.00
2019-05-02T05:58:52.673Z,1088.00
2019-05-02T05:59:52.055Z,1100.00
2019-05-02T06:00:55.427Z,1120.00
2019-05-02T06:01:51.956Z,1152.00
2019-05-02T06:02:56.229Z,1204.00
2019-05-02T06:03:51.876Z,1244.00
2019-05-02T06:04:55.299Z,1244.00
2019-05-02T06:05:51.765Z,1260.00
2019-05-02T06:06:54.081Z,1284.00
2019-05-02T06:07:51.667Z,1300.00
2019-05-02T06:08:54.023Z,1296.00
2019-05-02T06:09:51.569Z,1308.00
2019-05-02T06:10:51.524Z,1348.00
2019-05-02T06:11:55.425Z,1368.00
2019-05-02T06:12:51.425Z,1404.00
2019-05-02T06:13:51.376Z,1408.00
2019-05-02T06:14:51.336Z,1420.00
2019-05-02T06:16:01.549Z,1384.00
2019-05-02T06:16:52.035Z,1384.00
2019-05-02T06:17:51.183Z,1420.00
2019-05-02T06:18:51.139Z,1440.00
2019-05-02T06:19:53.569Z,1472.00
2019-05-02T06:20:51.039Z,1500.00
2019-05-02T06:21:50.992Z,1520.00
2019-05-02T06:22:54.958Z,1508.00
2019-05-02T06:23:50.896Z,1464.00
2019-05-02T06:24:52.112Z,1424.00
2019-05-02T06:25:50.801Z,1376.00
2019-05-02T06:26:51.782Z,1420.00
2019-05-02T06:27:50.703Z,1528.00
2019-05-02T06:28:50.656Z,1496.00
2019-05-02T06:29:51.226Z,1536.00
2019-05-02T06:30:50.567Z,1620.00
2019-05-02T06:31:50.514Z,1660.00
2019-05-02T06:32:54.964Z,1648.00
2019-05-02T06:33:50.415Z,1664.00
2019-05-02T06:34:50.369Z,1712.00
2019-05-02T06:35:51.755Z,1776.00
2019-05-02T06:36:50.271Z,1828.00
2019-05-02T06:37:51.838Z,1840.00
2019-05-02T06:38:52.076Z,1832.00
2019-05-02T06:39:50.130Z,1788.00
2019-05-02T06:40:50.087Z,1820.00
2019-05-02T06:41:51.987Z,1872.00
2019-05-02T06:42:49.987Z,1884.00
2019-05-02T06:43:49.938Z,1852.00
2019-05-02T06:44:49.891Z,1784.00
2019-05-02T06:45:49.840Z,1780.00
2019-05-02T06:46:49.797Z,1632.00
2019-05-02T06:47:49.750Z,1664.00
2019-05-02T06:48:52.390Z,1852.00
2019-05-02T06:49:49.655Z,1932.00
2019-05-02T06:50:49.603Z,1924.00
2019-05-02T06:51:51.035Z,2060.00
2019-05-02T06:52:49.505Z,2048.00
2019-05-02T06:53:49.458Z,2056.00
2019-05-02T06:54:49.411Z,2048.00
2019-05-02T06:55:49.366Z,2116.00
2019-05-02T06:56:49.315Z,2092.00
2019-05-02T06:57:51.689Z,2080.00
2019-05-02T06:58:49.221Z,2056.00
2019-05-02T06:59:50.002Z,2152.00
2019-05-02T07:00:57.427Z,2216.00
2019-05-02T07:01:52.344Z,2256.00
2019-05-02T07:02:49.039Z,2336.00
2019-05-02T07:03:48.983Z,2248.00
2019-05-02T07:04:48.938Z,2248.00
2019-05-02T07:05:49.357Z,2184.00
2019-05-02T07:06:58.099Z,2244.00
2019-05-02T07:07:48.801Z,2304.00
2019-05-02T07:08:48.768Z,2464.00
2019-05-02T07:09:48.713Z,2392.00
2019-05-02T07:10:48.651Z,2476.00
2019-05-02T07:11:56.900Z,2308.00
2019-05-02T07:12:51.189Z,2360.00
2019-05-02T07:13:48.509Z,2512.00
2019-05-02T07:14:48.461Z,2572.00
2019-05-02T07:15:48.773Z,2548.00
2019-05-02T07:16:49.688Z,2900.00
2019-05-02T07:17:48.319Z,2512.00
2019-05-02T07:18:49.689Z,2416.00
2019-05-02T07:19:48.226Z,2416.00
2019-05-02T07:20:48.176Z,2340.00
2019-05-02T07:21:48.129Z,2340.00
2019-05-02T07:22:48.087Z,2288.00
2019-05-02T07:23:48.564Z,2192.00
2019-05-02T07:24:47.993Z,2240.00
2019-05-02T07:25:47.942Z,2440.00
2019-05-02T07:27:47.847Z,2432.00
2019-05-02T07:28:47.800Z,2692.00
2019-05-02T07:29:52.253Z,2816.00
2019-05-02T07:30:47.706Z,2868.00
2019-05-02T07:31:48.852Z,2816.00
2019-05-02T07:32:47.612Z,2796.00
2019-05-02T07:33:47.566Z,2744.00
2019-05-02T07:34:48.144Z,2420.00
2019-05-02T07:35:47.472Z,2260.00
2019-05-02T07:36:47.422Z,2732.00
2019-05-02T07:37:48.905Z,2416.00
2019-05-02T07:38:47.328Z,2492.00
2019-05-02T07:39:47.281Z,2748.00
2019-05-02T07:40:48.080Z,2928.00
2019-05-02T07:41:47.187Z,2896.00
2019-05-02T07:42:47.175Z,2604.00
2019-05-02T07:43:47.098Z,2700.00
2019-05-02T07:44:47.046Z,2788.00
2019-05-02T07:45:47.000Z,2920.00
2019-05-02T07:46:51.901Z,3460.00
2019-05-02T07:47:46.906Z,3044.00
2019-05-02T07:48:48.715Z,2520.00
2019-05-02T07:49:46.812Z,2508.00
2019-05-02T07:50:48.119Z,2252.00
2019-05-02T07:51:46.718Z,2228.00
2019-05-02T07:52:46.672Z,2344.00
2019-05-02T07:53:48.484Z,2420.00
2019-05-02T07:54:46.579Z,2388.00
2019-05-02T07:55:48.969Z,2432.00
2019-05-02T07:56:48.589Z,2412.00
2019-05-02T07:57:46.437Z,2588.00
2019-05-02T07:58:47.966Z,2392.00
2019-05-02T07:59:46.343Z,2376.00
2019-05-02T08:00:46.296Z,2448.00
2019-05-02T08:01:49.758Z,2696.00
2019-05-02T08:02:46.202Z,2676.00
2019-05-02T08:04:46.113Z,2732.00
2019-05-02T08:05:46.063Z,2832.00
2019-05-02T08:06:46.426Z,2804.00
2019-05-02T08:07:45.976Z,2832.00
2019-05-02T08:08:45.924Z,2784.00
2019-05-02T08:09:45.878Z,3224.00
2019-05-02T08:10:45.828Z,2964.00
2019-05-02T08:11:45.785Z,3332.00
2019-05-02T08:12:45.745Z,3444.00
2019-05-02T08:13:49.574Z,3624.00
2019-05-02T08:14:45.643Z,3616.00
2019-05-02T08:15:50.640Z,4084.00
2019-05-02T08:16:45.552Z,3876.00
2019-05-02T08:17:53.294Z,3844.00
2019-05-02T08:18:45.456Z,3452.00
2019-05-02T08:19:45.409Z,3572.00
2019-05-02T08:20:45.366Z,3584.00
2019-05-02T08:21:45.319Z,3580.00
2019-05-02T08:22:48.900Z,3596.00
2019-05-02T08:23:45.228Z,3368.00
2019-05-02T08:24:45.177Z,3288.00
2019-05-02T08:25:45.626Z,3468.00
2019-05-02T08:26:45.084Z,3608.00
2019-05-02T08:27:45.038Z,3684.00
2019-05-02T08:28:47.068Z,3696.00
2019-05-02T08:29:44.944Z,3668.00
2019-05-02T08:30:44.905Z,4124.00
2019-05-02T08:31:44.861Z,3792.00
2019-05-02T08:32:44.804Z,3708.00
2019-05-02T08:33:44.759Z,3704.00
2019-05-02T08:34:46.243Z,3796.00
2019-05-02T08:35:44.666Z,3732.00
2019-05-02T08:36:44.620Z,3772.00
2019-05-02T08:37:44.575Z,3584.00
2019-05-02T08:38:44.545Z,3204.00
2019-05-02T08:39:44.480Z,2976.00
2019-05-02T08:40:47.715Z,2908.00
2019-05-02T08:41:44.388Z,2944.00
2019-05-02T08:42:44.357Z,3100.00
2019-05-02T08:43:44.872Z,3104.00
2019-05-02T08:44:51.341Z,2988.00
2019-05-02T08:45:44.204Z,3180.00
2019-05-02T08:46:46.140Z,3156.00
2019-05-02T08:47:44.112Z,2736.00
2019-05-02T08:48:44.274Z,3116.00
2019-05-02T08:49:44.017Z,1816.00
2019-05-02T08:50:43.974Z,3440.00
2019-05-02T08:51:43.927Z,3688.00
2019-05-02T08:52:44.231Z,4068.00
2019-05-02T08:53:43.834Z,3880.00
2019-05-02T08:54:43.788Z,3704.00
2019-05-02T08:55:45.290Z,3764.00
2019-05-02T08:56:43.696Z,3704.00
2019-05-02T08:57:43.653Z,4280.00
2019-05-02T08:58:44.875Z,3852.00
2019-05-02T08:59:43.558Z,3416.00
2019-05-02T09:00:43.511Z,3824.00
2019-05-02T09:01:44.726Z,4084.00
2019-05-02T09:02:43.422Z,3960.00
2019-05-02T09:03:55.241Z,4012.00
2019-05-02T09:04:43.327Z,4120.00
2019-05-02T09:05:46.095Z,3980.00
2019-05-02T09:06:46.007Z,4452.00
2019-05-02T09:07:43.423Z,4656.00
2019-05-02T09:08:46.110Z,4304.00
2019-05-02T09:09:43.099Z,4844.00
2019-05-02T09:10:43.535Z,4796.00
2019-05-02T09:11:48.236Z,4704.00
2019-05-02T09:12:45.464Z,3952.00
2019-05-02T09:13:45.926Z,4316.00
2019-05-02T09:14:42.871Z,3696.00
2019-05-02T09:15:49.693Z,4304.00
2019-05-02T09:16:42.811Z,3392.00
2019-05-02T09:17:46.490Z,3372.00
2019-05-02T09:18:50.525Z,3876.00
2019-05-02T09:19:42.993Z,3320.00
2019-05-02T09:20:46.939Z,3728.00
2019-05-02T09:21:42.906Z,3516.00
2019-05-02T09:22:46.612Z,3304.00
2019-05-02T09:23:44.003Z,3316.00
2019-05-02T09:24:44.518Z,3720.00
2019-05-02T09:25:43.022Z,4344.00
2019-05-02T09:26:42.627Z,4356.00
2019-05-02T09:27:42.284Z,4412.00
2019-05-02T09:28:42.363Z,4172.00
2019-05-02T09:29:45.828Z,3448.00
2019-05-02T09:30:42.146Z,3244.00
2019-05-02T09:31:45.891Z,3484.00
2019-05-02T09:32:42.055Z,3560.00
2019-05-02T09:34:42.326Z,3688.00
2019-05-02T09:35:42.243Z,3908.00
2019-05-02T09:36:41.935Z,3960.00
2019-05-02T09:37:42.117Z,3792.00
2019-05-02T09:38:42.472Z,4172.00
2019-05-02T09:39:41.743Z,4240.00
2019-05-02T09:40:42.580Z,4344.00
2019-05-02T09:41:41.989Z,4240.00
2019-05-02T09:42:42.995Z,3404.00
2019-05-02T09:43:42.644Z,4172.00
2019-05-02T09:45:43.801Z,3704.00
2019-05-02T09:46:42.826Z,3992.00
2019-05-02T09:47:53.859Z,4264.00
2019-05-02T09:48:42.749Z,4256.00
2019-05-02T09:49:48.840Z,4540.00
2019-05-02T09:50:42.204Z,4532.00
2019-05-02T09:51:42.053Z,4476.00
2019-05-02T09:52:44.056Z,4152.00
2019-05-02T09:53:43.227Z,4020.00
2019-05-02T09:54:44.554Z,4136.00
2019-05-02T09:55:42.322Z,4420.00
2019-05-02T09:56:43.014Z,4344.00
2019-05-02T09:57:42.781Z,4756.00
2019-05-02T09:58:42.066Z,3712.00
2019-05-02T09:59:43.383Z,3732.00
2019-05-02T10:00:41.834Z,4932.00
2019-05-02T10:01:42.145Z,4920.00
2019-05-02T10:02:41.849Z,4772.00
2019-05-02T10:03:42.310Z,3800.00
2019-05-02T10:04:43.500Z,4384.00
2019-05-02T10:05:42.891Z,4284.00
2019-05-02T10:06:42.380Z,4164.00
2019-05-02T10:07:41.874Z,4324.00
2019-05-02T10:08:43.527Z,4832.00
2019-05-02T10:09:42.327Z,4912.00
2019-05-02T10:10:42.533Z,5136.00
2019-05-02T10:11:41.832Z,4500.00
2019-05-02T10:12:40.269Z,5296.00
2019-05-02T10:13:42.346Z,5508.00
2019-05-02T10:14:42.128Z,5208.00
2019-05-02T10:15:41.963Z,5188.00
2019-05-02T10:16:42.487Z,5112.00
2019-05-02T10:17:42.901Z,5008.00
2019-05-02T10:18:40.030Z,4964.00
2019-05-02T10:19:43.017Z,4512.00
2019-05-02T10:20:41.846Z,4820.00
2019-05-02T10:21:42.102Z,3968.00
2019-05-02T10:22:41.864Z,5168.00
2019-05-02T10:23:39.794Z,4828.00
2019-05-02T10:24:39.742Z,5468.00
2019-05-02T10:25:45.965Z,3600.00
2019-05-02T10:26:41.819Z,3536.00
2019-05-02T10:27:45.980Z,5040.00
2019-05-02T10:28:41.776Z,5288.00
2019-05-02T10:29:41.774Z,5168.00
2019-05-02T10:30:39.478Z,5108.00
2019-05-02T10:31:39.536Z,4076.00
2019-05-02T10:32:39.390Z,5276.00
2019-05-02T10:33:39.347Z,5180.00
2019-05-02T10:34:39.304Z,5296.00
2019-05-02T10:35:40.830Z,5768.00
2019-05-02T10:36:42.483Z,5428.00
2019-05-02T10:37:39.726Z,4180.00
2019-05-02T10:38:39.130Z,5216.00
2019-05-02T10:39:39.090Z,4912.00
2019-05-02T10:40:39.041Z,5488.00
2019-05-02T10:41:40.931Z,3716.00
2019-05-02T10:42:38.977Z,3668.00
2019-05-02T10:43:38.933Z,5480.00
2019-05-02T10:44:38.868Z,5696.00
2019-05-02T10:46:38.781Z,5688.00
2019-05-02T10:47:38.738Z,5492.00
2019-05-02T10:49:38.650Z,5400.00
2019-05-02T10:50:38.607Z,4948.00
2019-05-02T10:51:43.364Z,4000.00
2019-05-02T10:52:38.523Z,4532.00
2019-05-02T10:53:38.477Z,3328.00
2019-05-02T10:54:38.434Z,3412.00
2019-05-02T10:55:38.391Z,3916.00
2019-05-02T10:56:38.344Z,4496.00
2019-05-02T10:57:38.302Z,6096.00
2019-05-02T10:58:38.259Z,6508.00
2019-05-02T10:59:38.249Z,6052.00
2019-05-02T11:00:38.173Z,6076.00
2019-05-02T11:01:38.133Z,6072.00
2019-05-02T11:02:38.089Z,6464.00
2019-05-02T11:03:43.044Z,6576.00
2019-05-02T11:04:37.998Z,6316.00
2019-05-02T11:05:37.955Z,6692.00
2019-05-02T11:06:42.637Z,6752.00
2019-05-02T11:07:37.871Z,6452.00
2019-05-02T11:08:42.130Z,5864.00
2019-05-02T11:09:37.788Z,5640.00
2019-05-02T11:10:37.741Z,4456.00
2019-05-02T11:11:37.697Z,4860.00
2019-05-02T11:12:44.075Z,6224.00
2019-05-02T11:13:37.615Z,6444.00
2019-05-02T11:14:37.571Z,6564.00
2019-05-02T11:15:37.524Z,6804.00
2019-05-02T11:16:37.480Z,7028.00
2019-05-02T11:17:37.439Z,6920.00
2019-05-02T11:18:41.981Z,6688.00
2019-05-02T11:19:37.359Z,6980.00
2019-05-02T11:20:37.314Z,7392.00
2019-05-02T11:21:37.266Z,7628.00
2019-05-02T11:22:37.224Z,7320.00
2019-05-02T11:23:37.254Z,7688.00
2019-05-02T11:24:37.140Z,6844.00
2019-05-02T11:25:37.101Z,8336.00
2019-05-02T11:26:37.057Z,8436.00
2019-05-02T11:27:37.013Z,8440.00
2019-05-02T11:28:36.970Z,8136.00
2019-05-02T11:29:36.928Z,8440.00
2019-05-02T11:30:36.885Z,5160.00
2019-05-02T11:31:36.845Z,5068.00
2019-05-02T11:32:36.799Z,6816.00
2019-05-02T11:33:36.759Z,6704.00
2019-05-02T11:35:36.677Z,4556.00
2019-05-02T11:36:36.631Z,4420.00
2019-05-02T11:37:36.589Z,4492.00
2019-05-02T11:38:37.252Z,5628.00
2019-05-02T11:39:45.307Z,3848.00
2019-05-02T11:40:36.464Z,3780.00
2019-05-02T11:41:36.423Z,5456.00
2019-05-02T11:42:36.411Z,4160.00
2019-05-02T11:43:37.190Z,4460.00
2019-05-02T11:44:36.338Z,5444.00
2019-05-02T11:45:36.259Z,7244.00
2019-05-02T11:46:37.470Z,6440.00
2019-05-02T11:47:36.172Z,5072.00
2019-05-02T11:48:36.157Z,5180.00
2019-05-02T11:49:36.090Z,5624.00
2019-05-02T11:50:36.071Z,6316.00
2019-05-02T11:51:36.003Z,7028.00
2019-05-02T11:52:37.481Z,6420.00
2019-05-02T11:53:35.920Z,6248.00
2019-05-02T11:54:39.249Z,7468.00
2019-05-02T11:55:35.839Z,7012.00
2019-05-02T11:56:35.793Z,8976.00
2019-05-02T11:57:35.753Z,9424.00
2019-05-02T11:58:35.711Z,8980.00
2019-05-02T11:59:35.669Z,8128.00
2019-05-02T12:00:39.601Z,7368.00
2019-05-02T12:01:39.573Z,5992.00
2019-05-02T12:02:35.542Z,5668.00
2019-05-02T12:03:37.003Z,5728.00
2019-05-02T12:04:35.460Z,5988.00
2019-05-02T12:05:35.868Z,6032.00
2019-05-02T12:06:35.380Z,5948.00
2019-05-02T12:07:35.337Z,6936.00
2019-05-02T12:08:39.534Z,7924.00
2019-05-02T12:09:35.253Z,7380.00
2019-05-02T12:10:36.749Z,6500.00
2019-05-02T12:11:35.171Z,5848.00
2019-05-02T12:12:36.362Z,7012.00
2019-05-02T12:13:35.086Z,6552.00
2019-05-02T12:14:36.510Z,6732.00
2019-05-02T12:15:35.005Z,7148.00
2019-05-02T12:16:34.961Z,7588.00
2019-05-02T12:17:34.922Z,8584.00
2019-05-02T12:18:34.988Z,8724.00
2019-05-02T12:19:34.850Z,7612.00
2019-05-02T12:20:36.685Z,7276.00
2019-05-02T12:21:34.754Z,8736.00
2019-05-02T12:22:34.719Z,8696.00
2019-05-02T12:23:36.273Z,8744.00
2019-05-02T12:24:36.395Z,8524.00
2019-05-02T12:25:34.593Z,8808.00
2019-05-02T12:26:34.608Z,8772.00
2019-05-02T12:27:34.509Z,8680.00
2019-05-02T12:28:34.466Z,6752.00
2019-05-02T12:29:34.426Z,7712.00
2019-05-02T12:30:37.727Z,7344.00
2019-05-02T12:31:34.346Z,7136.00
2019-05-02T12:32:34.306Z,6252.00
2019-05-02T12:33:34.266Z,5028.00
2019-05-02T12:34:34.225Z,4492.00
2019-05-02T12:35:34.188Z,4372.00
2019-05-02T12:36:34.142Z,4996.00
2019-05-02T12:37:34.100Z,5688.00
2019-05-02T12:38:34.058Z,6604.00
2019-05-02T12:39:34.033Z,7288.00
2019-05-02T12:40:34.022Z,8932.00